createdAt,value
2022-09-07T00:00:18.711Z,581.00
2022-09-07T00:01:13.909Z,583.00
2022-09-07T00:02:08.859Z,584.00
2022-09-07T00:03:03.922Z,578.00
2022-09-07T00:03:58.858Z,581.00
2022-09-07T00:04:57.153Z,574.00
2022-09-07T00:05:52.195Z,572.00
2022-09-07T00:06:47.238Z,586.00
2022-09-07T00:07:42.267Z,588.00
2022-09-07T00:08:37.305Z,584.00
2022-09-07T00:09:32.335Z,582.00
2022-09-07T00:10:27.342Z,585.00
2022-09-07T00:11:22.477Z,577.00
2022-09-07T00:12:17.391Z,574.00
2022-09-07T00:13:12.392Z,571.00
2022-09-07T00:14:07.439Z,570.00
2022-09-07T00:15:02.443Z,580.00
2022-09-07T00:15:57.717Z,567.00
2022-09-07T00:16:52.698Z,585.00
2022-09-07T00:17:47.705Z,593.00
2022-09-07T00:18:46.087Z,586.00
2022-09-07T00:19:37.806Z,581.00
2022-09-07T00:20:32.920Z,581.00
2022-09-07T00:21:27.913Z,578.00
2022-09-07T00:22:23.151Z,588.00
2022-09-07T00:23:18.427Z,596.00
2022-09-07T00:24:13.590Z,599.00
2022-09-07T00:25:08.859Z,595.00
2022-09-07T00:26:04.237Z,582.00
2022-09-07T00:26:59.231Z,590.00
2022-09-07T00:27:54.356Z,584.00
2022-09-07T00:28:49.586Z,595.00
2022-09-07T00:29:44.789Z,597.00
2022-09-07T00:30:39.890Z,595.00
2022-09-07T00:31:35.053Z,585.00
2022-09-07T00:32:30.166Z,592.00
2022-09-07T00:33:25.516Z,588.00
2022-09-07T00:34:20.626Z,580.00
2022-09-07T00:35:15.978Z,577.00
2022-09-07T00:36:11.502Z,574.00
2022-09-07T00:37:06.495Z,569.00
2022-09-07T00:38:01.635Z,578.00
2022-09-07T00:38:56.798Z,566.00
2022-09-07T00:39:52.096Z,560.00
2022-09-07T00:40:47.230Z,558.00
2022-09-07T00:41:42.486Z,563.00
2022-09-07T00:42:37.772Z,561.00
2022-09-07T00:43:32.971Z,558.00
2022-09-07T00:44:28.184Z,556.00
2022-09-07T00:45:23.555Z,557.00
2022-09-07T00:46:18.604Z,560.00
2022-09-07T00:47:13.784Z,568.00
2022-09-07T00:48:08.956Z,572.00
2022-09-07T00:49:04.161Z,576.00
2022-09-07T00:49:59.534Z,581.00
2022-09-07T00:50:54.646Z,573.00
2022-09-07T00:51:49.851Z,580.00
2022-09-07T00:52:44.972Z,590.00
2022-09-07T00:53:40.362Z,582.00
2022-09-07T00:54:35.573Z,576.00
2022-09-07T00:55:30.679Z,585.00
2022-09-07T00:56:25.904Z,582.00
2022-09-07T00:57:20.992Z,589.00
2022-09-07T00:58:16.240Z,581.00
2022-09-07T00:59:11.629Z,586.00
2022-09-07T01:00:06.585Z,587.00
2022-09-07T01:01:01.812Z,588.00
2022-09-07T01:01:57.074Z,587.00
2022-09-07T01:02:52.223Z,589.00
2022-09-07T01:03:47.108Z,584.00
2022-09-07T01:04:42.209Z,595.00
2022-09-07T01:05:37.229Z,590.00
2022-09-07T01:06:32.230Z,585.00
2022-09-07T01:07:27.260Z,590.00
2022-09-07T01:08:22.285Z,586.00
2022-09-07T01:09:17.322Z,594.00
2022-09-07T01:10:12.426Z,603.00
2022-09-07T01:11:07.505Z,596.00
2022-09-07T01:12:02.825Z,603.00
2022-09-07T01:12:57.968Z,611.00
2022-09-07T01:13:53.067Z,615.00
2022-09-07T01:14:48.356Z,606.00
2022-09-07T01:15:43.542Z,600.00
2022-09-07T01:16:38.624Z,599.00
2022-09-07T01:17:33.855Z,600.00
2022-09-07T01:18:29.095Z,592.00
2022-09-07T01:19:24.193Z,598.00
2022-09-07T01:20:20.003Z,587.00
2022-09-07T01:21:15.191Z,582.00
2022-09-07T01:22:10.994Z,586.00
2022-09-07T01:23:06.277Z,592.00
2022-09-07T01:24:01.433Z,597.00
2022-09-07T01:24:57.244Z,599.00
2022-09-07T01:25:52.413Z,593.00
2022-09-07T01:26:47.632Z,592.00
2022-09-07T01:27:44.169Z,605.00
2022-09-07T01:28:39.335Z,599.00
2022-09-07T01:29:35.200Z,605.00
2022-09-07T01:30:30.372Z,600.00
2022-09-07T01:31:25.538Z,602.00
2022-09-07T01:32:21.371Z,596.00
2022-09-07T01:33:16.650Z,594.00
2022-09-07T01:34:12.508Z,583.00
2022-09-07T01:35:07.619Z,577.00
2022-09-07T01:36:03.049Z,579.00
2022-09-07T01:36:58.924Z,575.00
2022-09-07T01:37:57.049Z,568.00
2022-09-07T01:38:49.589Z,584.00
2022-09-07T01:39:44.654Z,580.00
2022-09-07T01:40:39.716Z,572.00
2022-09-07T01:41:34.900Z,576.00
2022-09-07T01:42:30.141Z,581.00
2022-09-07T01:43:25.380Z,592.00
2022-09-07T01:44:20.280Z,589.00
2022-09-07T01:45:15.306Z,594.00
2022-09-07T01:46:10.447Z,602.00
2022-09-07T01:47:05.429Z,598.00
2022-09-07T01:48:00.615Z,604.00
2022-09-07T01:48:55.634Z,586.00
2022-09-07T01:49:52.347Z,613.00
2022-09-07T01:50:47.392Z,604.00
2022-09-07T01:51:42.443Z,609.00
2022-09-07T01:52:37.436Z,602.00
2022-09-07T01:53:32.536Z,610.00
2022-09-07T01:54:27.655Z,611.00
2022-09-07T01:55:22.746Z,607.00
2022-09-07T01:56:17.754Z,603.00
2022-09-07T01:57:12.796Z,602.00
2022-09-07T01:58:07.894Z,603.00
2022-09-07T01:59:02.908Z,600.00
2022-09-07T01:59:58.015Z,596.00
2022-09-07T02:00:53.164Z,597.00
2022-09-07T02:01:48.435Z,581.00
2022-09-07T02:02:43.793Z,592.00
2022-09-07T02:03:39.421Z,584.00
2022-09-07T02:04:34.581Z,588.00
2022-09-07T02:05:30.451Z,589.00
2022-09-07T02:06:25.713Z,598.00
2022-09-07T02:07:21.096Z,607.00
2022-09-07T02:08:16.861Z,610.00
2022-09-07T02:09:11.959Z,598.00
2022-09-07T02:10:07.067Z,606.00
2022-09-07T02:11:03.579Z,605.00
2022-09-07T02:11:58.884Z,598.00
2022-09-07T02:12:54.660Z,593.00
2022-09-07T02:13:49.882Z,580.00
2022-09-07T02:14:48.288Z,587.00
2022-09-07T02:15:41.927Z,578.00
2022-09-07T02:16:36.121Z,574.00
2022-09-07T02:17:31.929Z,574.00
2022-09-07T02:18:27.228Z,585.00
2022-09-07T02:19:22.375Z,571.00
2022-09-07T02:20:17.594Z,584.00
2022-09-07T02:21:12.736Z,583.00
2022-09-07T02:22:09.284Z,576.00
2022-09-07T02:23:04.454Z,579.00
2022-09-07T02:24:00.276Z,590.00
2022-09-07T02:24:55.477Z,582.00
2022-09-07T02:25:50.770Z,603.00
2022-09-07T02:26:46.493Z,597.00
2022-09-07T02:27:41.604Z,595.00
2022-09-07T02:28:37.423Z,600.00
2022-09-07T02:29:32.496Z,584.00
2022-09-07T02:30:27.899Z,601.00
2022-09-07T02:31:23.702Z,614.00
2022-09-07T02:32:18.873Z,592.00
2022-09-07T02:33:13.972Z,596.00
2022-09-07T02:34:10.424Z,595.00
2022-09-07T02:35:05.737Z,589.00
2022-09-07T02:36:01.452Z,595.00
2022-09-07T02:36:56.761Z,598.00
2022-09-07T02:37:51.873Z,589.00
2022-09-07T02:38:47.092Z,588.00
2022-09-07T02:39:42.492Z,580.00
2022-09-07T02:40:37.460Z,580.00
2022-09-07T02:41:32.711Z,582.00
2022-09-07T02:42:28.551Z,586.00
2022-09-07T02:43:23.780Z,587.00
2022-09-07T02:44:19.132Z,595.00
2022-09-07T02:45:14.827Z,600.00
2022-09-07T02:46:10.224Z,622.00
2022-09-07T02:47:05.538Z,602.00
2022-09-07T02:48:00.489Z,596.00
2022-09-07T02:48:55.568Z,590.00
2022-09-07T02:49:50.679Z,593.00
2022-09-07T02:50:45.779Z,591.00
2022-09-07T02:51:40.888Z,599.00
2022-09-07T02:52:35.883Z,599.00
2022-09-07T02:53:30.967Z,594.00
2022-09-07T02:54:25.989Z,586.00
2022-09-07T02:55:21.087Z,580.00
2022-09-07T02:56:16.222Z,587.00
2022-09-07T02:57:11.377Z,588.00
2022-09-07T02:58:06.269Z,594.00
2022-09-07T02:59:01.390Z,593.00
2022-09-07T02:59:56.513Z,590.00
2022-09-07T03:00:51.724Z,574.00
2022-09-07T03:01:46.959Z,580.00
2022-09-07T03:02:42.036Z,567.00
2022-09-07T03:03:37.005Z,588.00
2022-09-07T03:04:32.113Z,575.00
2022-09-07T03:05:27.204Z,574.00
2022-09-07T03:06:22.208Z,569.00
2022-09-07T03:07:17.320Z,574.00
2022-09-07T03:08:12.454Z,580.00
2022-09-07T03:09:10.394Z,572.00
2022-09-07T03:10:05.519Z,579.00
2022-09-07T03:11:00.661Z,575.00
2022-09-07T03:11:55.909Z,571.00
2022-09-07T03:12:51.020Z,573.00
2022-09-07T03:13:46.124Z,585.00
2022-09-07T03:14:41.252Z,586.00
2022-09-07T03:15:36.308Z,569.00
2022-09-07T03:16:31.272Z,570.00
2022-09-07T03:17:26.366Z,575.00
2022-09-07T03:18:21.478Z,568.00
2022-09-07T03:19:16.537Z,563.00
2022-09-07T03:20:11.602Z,576.00
2022-09-07T03:21:11.023Z,574.00
2022-09-07T03:22:06.108Z,588.00
2022-09-07T03:23:01.140Z,563.00
2022-09-07T03:23:56.128Z,566.00
2022-09-07T03:24:51.162Z,571.00
2022-09-07T03:25:46.249Z,560.00
2022-09-07T03:26:41.334Z,562.00
2022-09-07T03:27:36.302Z,558.00
2022-09-07T03:28:31.633Z,562.00
2022-09-07T03:29:26.606Z,559.00
2022-09-07T03:30:21.609Z,559.00
2022-09-07T03:31:16.645Z,556.00
2022-09-07T03:32:11.661Z,560.00
2022-09-07T03:33:06.635Z,554.00
2022-09-07T03:34:01.790Z,552.00
2022-09-07T03:34:57.709Z,551.00
2022-09-07T03:35:52.819Z,553.00
2022-09-07T03:36:48.757Z,549.00
2022-09-07T03:37:43.860Z,553.00
2022-09-07T03:38:39.233Z,543.00
2022-09-07T03:39:35.269Z,548.00
2022-09-07T03:40:30.287Z,549.00
2022-09-07T03:41:25.684Z,550.00
2022-09-07T03:42:21.829Z,548.00
2022-09-07T03:43:17.015Z,546.00
2022-09-07T03:44:12.894Z,546.00
2022-09-07T03:45:08.035Z,551.00
2022-09-07T03:46:03.549Z,549.00
2022-09-07T03:46:59.159Z,550.00
2022-09-07T03:47:54.477Z,551.00
2022-09-07T03:48:50.298Z,554.00
2022-09-07T03:49:45.585Z,549.00
2022-09-07T03:50:40.601Z,549.00
2022-09-07T03:51:35.668Z,554.00
2022-09-07T03:52:30.746Z,553.00
2022-09-07T03:53:26.156Z,556.00
2022-09-07T03:54:20.971Z,549.00
2022-09-07T03:55:15.997Z,558.00
2022-09-07T03:56:11.000Z,558.00
2022-09-07T03:57:05.995Z,559.00
2022-09-07T03:58:01.050Z,558.00
2022-09-07T03:58:56.098Z,550.00
2022-09-07T03:59:51.139Z,552.00
2022-09-07T04:00:46.161Z,554.00
2022-09-07T04:01:41.379Z,554.00
2022-09-07T04:02:36.327Z,559.00
2022-09-07T04:03:35.439Z,552.00
2022-09-07T04:04:30.478Z,551.00
2022-09-07T04:05:25.655Z,552.00
2022-09-07T04:06:20.668Z,550.00
2022-09-07T04:07:15.730Z,549.00
2022-09-07T04:08:10.788Z,552.00
2022-09-07T04:09:05.861Z,551.00
2022-09-07T04:10:01.051Z,560.00
2022-09-07T04:10:55.924Z,563.00
2022-09-07T04:11:50.996Z,559.00
2022-09-07T04:12:49.613Z,570.00
2022-09-07T04:13:44.689Z,561.00
2022-09-07T04:14:39.786Z,552.00
2022-09-07T04:15:35.026Z,553.00
2022-09-07T04:16:30.091Z,556.00
2022-09-07T04:17:25.075Z,561.00
2022-09-07T04:18:20.197Z,553.00
2022-09-07T04:19:15.190Z,558.00
2022-09-07T04:20:10.643Z,566.00
2022-09-07T04:21:05.743Z,554.00
2022-09-07T04:22:00.886Z,553.00
2022-09-07T04:22:56.726Z,558.00
2022-09-07T04:23:51.853Z,560.00
2022-09-07T04:24:47.654Z,557.00
2022-09-07T04:25:42.909Z,554.00
2022-09-07T04:26:38.236Z,560.00
2022-09-07T04:27:34.096Z,558.00
2022-09-07T04:28:29.358Z,561.00
2022-09-07T04:29:24.611Z,563.00
2022-09-07T04:30:20.944Z,570.00
2022-09-07T04:31:16.195Z,572.00
2022-09-07T04:32:15.724Z,568.00
2022-09-07T04:33:07.260Z,562.00
2022-09-07T04:34:02.639Z,552.00
2022-09-07T04:34:58.224Z,562.00
2022-09-07T04:35:53.519Z,555.00
2022-09-07T04:36:49.401Z,552.00
2022-09-07T04:37:44.487Z,555.00
2022-09-07T04:38:39.941Z,548.00
2022-09-07T04:39:35.832Z,550.00
2022-09-07T04:40:30.910Z,543.00
2022-09-07T04:41:26.198Z,541.00
2022-09-07T04:42:22.513Z,543.00
2022-09-07T04:43:17.725Z,554.00
2022-09-07T04:44:16.778Z,553.00
2022-09-07T04:45:08.743Z,549.00
2022-09-07T04:46:04.043Z,554.00
2022-09-07T04:46:59.838Z,552.00
2022-09-07T04:47:55.216Z,549.00
2022-09-07T04:48:50.897Z,556.00
2022-09-07T04:49:46.245Z,555.00
2022-09-07T04:50:41.673Z,545.00
2022-09-07T04:51:37.375Z,541.00
2022-09-07T04:52:32.636Z,545.00
2022-09-07T04:53:28.255Z,541.00
2022-09-07T04:54:24.366Z,548.00
2022-09-07T04:55:19.706Z,545.00
2022-09-07T04:56:17.039Z,542.00
2022-09-07T04:57:10.786Z,551.00
2022-09-07T04:58:06.175Z,546.00
2022-09-07T04:59:01.981Z,545.00
2022-09-07T04:59:57.353Z,556.00
2022-09-07T05:00:53.096Z,541.00
2022-09-07T05:01:48.450Z,546.00
2022-09-07T05:02:43.989Z,547.00
2022-09-07T05:03:39.617Z,546.00
2022-09-07T05:04:34.904Z,544.00
2022-09-07T05:05:30.193Z,539.00
2022-09-07T05:06:26.507Z,546.00
2022-09-07T05:07:21.871Z,544.00
2022-09-07T05:08:17.625Z,546.00
2022-09-07T05:09:12.962Z,548.00
2022-09-07T05:10:08.289Z,551.00
2022-09-07T05:11:04.050Z,552.00
2022-09-07T05:11:59.475Z,551.00
2022-09-07T05:12:55.259Z,546.00
2022-09-07T05:13:50.430Z,549.00
2022-09-07T05:14:45.698Z,541.00
2022-09-07T05:15:41.580Z,556.00
2022-09-07T05:16:36.945Z,556.00
2022-09-07T05:17:32.334Z,554.00
2022-09-07T05:18:28.663Z,545.00
2022-09-07T05:19:24.044Z,553.00
2022-09-07T05:20:20.363Z,561.00
2022-09-07T05:21:14.753Z,551.00
2022-09-07T05:22:10.707Z,546.00
2022-09-07T05:23:05.887Z,542.00
2022-09-07T05:24:01.342Z,542.00
2022-09-07T05:24:57.343Z,537.00
2022-09-07T05:25:52.448Z,538.00
2022-09-07T05:26:47.924Z,539.00
2022-09-07T05:27:44.045Z,544.00
2022-09-07T05:28:39.355Z,556.00
2022-09-07T05:30:06.160Z,554.00
2022-09-07T05:31:28.574Z,540.00
2022-09-07T05:32:22.979Z,557.00
2022-09-07T05:33:18.889Z,545.00
2022-09-07T05:34:30.188Z,548.00
2022-09-07T05:35:11.294Z,543.00
2022-09-07T05:36:05.586Z,552.00
2022-09-07T05:37:00.969Z,548.00
2022-09-07T05:37:57.451Z,545.00
2022-09-07T05:38:52.805Z,542.00
2022-09-07T05:39:48.456Z,548.00
2022-09-07T05:40:44.544Z,549.00
2022-09-07T05:41:39.959Z,554.00
2022-09-07T05:42:35.486Z,548.00
2022-09-07T05:43:31.489Z,546.00
2022-09-07T05:45:23.441Z,540.00
2022-09-07T05:46:17.881Z,545.00
2022-09-07T05:47:12.850Z,533.00
2022-09-07T05:48:07.882Z,565.00
2022-09-07T05:49:03.038Z,551.00
2022-09-07T05:49:58.058Z,545.00
2022-09-07T05:50:53.099Z,546.00
2022-09-07T05:51:48.212Z,555.00
2022-09-07T05:52:43.298Z,549.00
2022-09-07T05:53:38.397Z,555.00
2022-09-07T05:54:33.371Z,554.00
2022-09-07T05:55:30.539Z,550.00
2022-09-07T05:56:23.508Z,567.00
2022-09-07T05:57:18.717Z,580.00
2022-09-07T05:58:14.096Z,575.00
2022-09-07T05:59:10.429Z,548.00
2022-09-07T06:00:05.827Z,555.00
2022-09-07T06:01:01.654Z,555.00
2022-09-07T06:01:57.050Z,551.00
2022-09-07T06:02:52.499Z,561.00
2022-09-07T06:03:48.114Z,555.00
2022-09-07T06:04:43.548Z,549.00
2022-09-07T06:05:39.242Z,545.00
2022-09-07T06:06:34.686Z,554.00
2022-09-07T06:07:30.219Z,555.00
2022-09-07T06:08:25.949Z,550.00
2022-09-07T06:09:21.447Z,545.00
2022-09-07T06:11:14.394Z,557.00
2022-09-07T06:12:08.884Z,569.00
2022-09-07T06:13:04.590Z,559.00
2022-09-07T06:14:00.061Z,553.00
2022-09-07T06:14:55.498Z,556.00
2022-09-07T06:15:51.622Z,555.00
2022-09-07T06:16:46.974Z,555.00
2022-09-07T06:17:42.657Z,558.00
2022-09-07T06:18:38.080Z,558.00
2022-09-07T06:19:33.514Z,554.00
2022-09-07T06:20:29.350Z,553.00
2022-09-07T06:21:24.878Z,566.00
2022-09-07T06:22:20.309Z,554.00
2022-09-07T06:23:16.610Z,559.00
2022-09-07T06:24:11.984Z,563.00
2022-09-07T06:25:07.829Z,570.00
2022-09-07T06:26:03.221Z,567.00
2022-09-07T06:26:58.652Z,562.00
2022-09-07T06:27:54.416Z,582.00
2022-09-07T06:28:51.473Z,561.00
2022-09-07T06:29:45.792Z,567.00
2022-09-07T06:30:41.129Z,561.00
2022-09-07T06:32:48.612Z,565.00
2022-09-07T06:33:28.830Z,555.00
2022-09-07T06:34:23.193Z,558.00
2022-09-07T06:35:18.211Z,555.00
2022-09-07T06:36:13.319Z,563.00
2022-09-07T06:37:08.338Z,558.00
2022-09-07T06:38:03.438Z,571.00
2022-09-07T06:38:58.478Z,556.00
2022-09-07T06:39:53.622Z,558.00
2022-09-07T06:40:48.829Z,562.00
2022-09-07T06:42:05.143Z,558.00
2022-09-07T06:42:46.191Z,512.00
2022-09-07T06:43:45.499Z,511.00
2022-09-07T06:44:37.369Z,516.00
2022-09-07T06:45:32.166Z,515.00
2022-09-07T06:47:24.055Z,523.00
2022-09-07T06:48:18.953Z,530.00
2022-09-07T06:49:14.328Z,520.00
2022-09-07T06:50:09.760Z,522.00
2022-09-07T06:51:06.062Z,528.00
2022-09-07T06:52:01.496Z,521.00
2022-09-07T06:55:04.413Z,523.00
2022-09-07T06:55:44.193Z,529.00
2022-09-07T06:56:38.244Z,513.00
2022-09-07T06:57:33.342Z,520.00
2022-09-07T06:58:28.421Z,519.00
2022-09-07T06:59:23.392Z,522.00
2022-09-07T07:00:18.502Z,510.00
2022-09-07T07:01:13.777Z,521.00
2022-09-07T07:02:08.750Z,517.00
2022-09-07T07:03:03.811Z,509.00
2022-09-07T07:03:58.830Z,510.00
2022-09-07T07:04:53.852Z,513.00
2022-09-07T07:05:48.971Z,520.00
2022-09-07T07:06:44.027Z,514.00
2022-09-07T07:07:39.061Z,518.00
2022-09-07T07:08:38.270Z,512.00
2022-09-07T07:09:33.331Z,514.00
2022-09-07T07:10:28.365Z,527.00
2022-09-07T07:11:23.388Z,530.00
2022-09-07T07:13:44.331Z,544.00
2022-09-07T07:14:44.087Z,544.00
2022-09-07T07:15:36.070Z,524.00
2022-09-07T07:16:30.636Z,543.00
2022-09-07T07:17:26.124Z,538.00
2022-09-07T07:18:21.592Z,534.00
2022-09-07T07:19:17.042Z,528.00
2022-09-07T07:20:12.623Z,539.00
2022-09-07T07:21:08.055Z,535.00
2022-09-07T07:23:00.014Z,526.00
2022-09-07T07:23:54.334Z,532.00
2022-09-07T07:24:49.727Z,538.00
2022-09-07T07:25:45.164Z,530.00
2022-09-07T07:26:40.778Z,526.00
2022-09-07T07:27:36.138Z,536.00
2022-09-07T07:29:28.404Z,523.00
2022-09-07T07:30:22.709Z,525.00
2022-09-07T07:31:18.354Z,532.00
2022-09-07T07:32:13.894Z,537.00
2022-09-07T07:33:09.398Z,531.00
2022-09-07T07:34:04.923Z,529.00
2022-09-07T07:35:00.277Z,529.00
2022-09-07T07:35:55.682Z,527.00
2022-09-07T07:36:51.294Z,533.00
2022-09-07T07:37:46.583Z,535.00
2022-09-07T07:40:36.251Z,522.00
2022-09-07T07:42:24.764Z,521.00
2022-09-07T07:43:19.262Z,526.00
2022-09-07T07:44:14.793Z,525.00
2022-09-07T07:46:06.857Z,522.00
2022-09-07T07:47:01.150Z,525.00
2022-09-07T07:47:56.461Z,537.00
2022-09-07T07:48:52.215Z,529.00
2022-09-07T07:49:47.608Z,530.00
2022-09-07T07:50:42.914Z,535.00
2022-09-07T07:52:50.736Z,529.00
2022-09-07T07:53:45.686Z,526.00
2022-09-07T07:54:25.903Z,499.00
2022-09-07T07:56:16.880Z,497.00
2022-09-07T07:57:11.592Z,495.00
2022-09-07T07:58:06.917Z,498.00
2022-09-07T07:59:02.500Z,502.00
2022-09-07T07:59:57.951Z,497.00
2022-09-07T08:00:55.925Z,492.00
2022-09-07T08:01:48.828Z,498.00
2022-09-07T08:02:44.689Z,501.00
2022-09-07T08:03:39.884Z,496.00
2022-09-07T08:04:35.359Z,506.00
2022-09-07T08:05:30.865Z,496.00
2022-09-07T08:06:26.310Z,490.00
2022-09-07T08:07:21.750Z,493.00
2022-09-07T08:08:17.478Z,494.00
2022-09-07T08:09:12.816Z,496.00
2022-09-07T08:10:08.242Z,495.00
2022-09-07T08:11:03.616Z,493.00
2022-09-07T08:11:59.009Z,494.00
2022-09-07T08:12:54.734Z,496.00
2022-09-07T08:13:50.093Z,489.00
2022-09-07T08:14:45.480Z,490.00
2022-09-07T08:15:40.874Z,495.00
2022-09-07T08:16:36.527Z,493.00
2022-09-07T08:17:31.983Z,490.00
2022-09-07T08:18:27.393Z,491.00
2022-09-07T08:19:23.064Z,490.00
2022-09-07T08:20:18.726Z,493.00
2022-09-07T08:21:14.083Z,496.00
2022-09-07T08:22:09.676Z,495.00
2022-09-07T08:23:04.924Z,494.00
2022-09-07T08:24:00.612Z,498.00
2022-09-07T08:24:56.028Z,494.00
2022-09-07T08:25:51.627Z,491.00
2022-09-07T08:26:47.008Z,491.00
2022-09-07T08:27:42.748Z,488.00
2022-09-07T08:28:38.391Z,486.00
2022-09-07T08:29:35.342Z,492.00
2022-09-07T08:30:29.188Z,489.00
2022-09-07T08:31:24.758Z,488.00
2022-09-07T08:32:20.272Z,489.00
2022-09-07T08:33:15.789Z,495.00
2022-09-07T08:34:11.320Z,497.00
2022-09-07T08:35:06.727Z,492.00
2022-09-07T08:36:02.103Z,490.00
2022-09-07T08:36:57.873Z,445.00
2022-09-07T08:37:53.137Z,447.00
2022-09-07T08:38:48.699Z,466.00
2022-09-07T08:39:44.193Z,447.00
2022-09-07T08:40:39.124Z,456.00
2022-09-07T08:41:34.191Z,451.00
2022-09-07T08:42:29.432Z,449.00
2022-09-07T08:43:24.515Z,446.00
2022-09-07T08:44:19.657Z,448.00
2022-09-07T08:45:14.750Z,446.00
2022-09-07T08:46:09.768Z,441.00
2022-09-07T08:47:04.825Z,449.00
2022-09-07T08:47:59.783Z,453.00
2022-09-07T08:48:55.060Z,444.00
2022-09-07T08:49:50.009Z,444.00
2022-09-07T08:50:45.094Z,442.00
2022-09-07T08:51:40.188Z,457.00
2022-09-07T08:52:35.515Z,448.00
2022-09-07T08:53:31.026Z,415.00
2022-09-07T08:54:26.310Z,418.00
2022-09-07T08:55:21.699Z,420.00
2022-09-07T08:56:17.230Z,416.00
2022-09-07T08:57:28.029Z,422.00
2022-09-07T08:58:18.130Z,418.00
2022-09-07T08:59:04.531Z,418.00
2022-09-07T08:59:58.962Z,420.00
2022-09-07T09:03:28.619Z,414.00
2022-09-07T09:05:16.204Z,416.00
2022-09-07T09:05:31.718Z,418.00
2022-09-07T09:06:11.234Z,413.00
2022-09-07T09:06:25.864Z,415.00
2022-09-07T09:07:20.738Z,425.00
2022-09-07T09:08:15.844Z,415.00
2022-09-07T09:09:11.262Z,421.00
2022-09-07T09:10:08.196Z,418.00
2022-09-07T09:11:03.717Z,421.00
2022-09-07T09:11:59.217Z,420.00
2022-09-07T09:12:54.222Z,425.00
2022-09-07T09:13:49.295Z,420.00
2022-09-07T09:14:44.443Z,421.00
2022-09-07T09:15:39.486Z,421.00
2022-09-07T09:16:34.458Z,414.00
2022-09-07T09:17:29.588Z,414.00
2022-09-07T09:18:24.759Z,415.00
2022-09-07T09:19:19.683Z,416.00
2022-09-07T09:20:14.839Z,420.00
2022-09-07T09:21:09.762Z,428.00
2022-09-07T09:22:05.134Z,413.00
2022-09-07T09:23:00.521Z,418.00
2022-09-07T09:23:56.139Z,417.00
2022-09-07T09:24:51.752Z,422.00
2022-09-07T09:25:47.013Z,424.00
2022-09-07T09:26:42.371Z,422.00
2022-09-07T09:27:37.861Z,425.00
2022-09-07T09:28:33.706Z,435.00
2022-09-07T09:29:28.786Z,424.00
2022-09-07T09:30:24.313Z,413.00
2022-09-07T09:31:20.151Z,422.00
2022-09-07T09:32:15.519Z,412.00
2022-09-07T09:33:14.526Z,417.00
2022-09-07T09:34:09.939Z,415.00
2022-09-07T09:35:05.592Z,418.00
2022-09-07T09:36:01.077Z,422.00
2022-09-07T09:36:56.408Z,420.00
2022-09-07T09:37:52.015Z,412.00
2022-09-07T09:38:47.291Z,414.00
2022-09-07T09:39:42.975Z,417.00
2022-09-07T09:40:38.491Z,409.00
2022-09-07T09:41:34.031Z,411.00
2022-09-07T09:42:29.551Z,415.00
2022-09-07T09:43:25.057Z,416.00
2022-09-07T09:44:20.608Z,420.00
2022-09-07T09:45:15.683Z,418.00
2022-09-07T09:46:12.365Z,414.00
2022-09-07T09:48:02.065Z,416.00
2022-09-07T09:48:56.122Z,419.00
2022-09-07T09:49:51.196Z,418.00
2022-09-07T09:52:45.381Z,415.00
2022-09-07T09:53:32.558Z,423.00
2022-09-07T09:54:26.569Z,417.00
2022-09-07T09:55:34.295Z,424.00
2022-09-07T09:56:21.005Z,419.00
2022-09-07T09:57:15.668Z,416.00
2022-09-07T09:59:56.698Z,414.00
2022-09-07T10:00:05.744Z,404.00
2022-09-07T10:04:02.664Z,407.00
2022-09-07T10:04:39.328Z,407.00
2022-09-07T10:05:33.529Z,414.00
2022-09-07T10:06:28.669Z,407.00
2022-09-07T10:07:23.663Z,416.00
2022-09-07T10:08:18.776Z,414.00
2022-09-07T10:09:13.872Z,410.00
2022-09-07T10:10:09.003Z,410.00
2022-09-07T10:11:04.512Z,405.00
2022-09-07T10:12:08.033Z,415.00
2022-09-07T10:12:56.574Z,415.00
2022-09-07T10:13:51.184Z,409.00
2022-09-07T10:14:46.704Z,408.00
2022-09-07T10:15:42.341Z,404.00
2022-09-07T10:16:37.356Z,406.00
2022-09-07T10:17:32.335Z,396.00
2022-09-07T10:18:27.382Z,409.00
2022-09-07T10:19:25.180Z,399.00
2022-09-07T10:20:20.170Z,399.00
2022-09-07T10:21:15.276Z,398.00
2022-09-07T10:22:10.370Z,397.00
2022-09-07T10:23:05.415Z,395.00
2022-09-07T10:24:00.430Z,403.00
2022-09-07T10:24:55.440Z,404.00
2022-09-07T10:25:50.533Z,404.00
2022-09-07T10:26:46.699Z,399.00
2022-09-07T10:27:41.943Z,399.00
2022-09-07T10:29:36.026Z,399.00
2022-09-07T10:30:28.542Z,397.00
2022-09-07T10:31:24.067Z,397.00
2022-09-07T10:32:19.823Z,404.00
2022-09-07T10:33:15.344Z,394.00
2022-09-07T10:34:26.509Z,399.00
2022-09-07T10:35:07.422Z,402.00
2022-09-07T10:36:01.496Z,404.00
2022-09-07T10:36:56.581Z,401.00
2022-09-07T10:37:51.652Z,409.00
2022-09-07T10:38:46.583Z,407.00
2022-09-07T10:39:41.768Z,412.00
2022-09-07T10:40:36.787Z,393.00
2022-09-07T10:41:31.911Z,403.00
2022-09-07T10:42:28.804Z,404.00
2022-09-07T10:43:23.902Z,398.00
2022-09-07T10:44:19.031Z,395.00
2022-09-07T10:45:14.057Z,393.00
2022-09-07T10:46:09.342Z,395.00
2022-09-07T10:47:04.189Z,396.00
2022-09-07T10:47:59.296Z,395.00
2022-09-07T10:48:54.280Z,400.00
2022-09-07T10:50:46.691Z,399.00
2022-09-07T10:51:41.134Z,401.00
2022-09-07T10:52:36.490Z,404.00
2022-09-07T10:53:47.628Z,404.00
2022-09-07T10:54:30.584Z,400.00
2022-09-07T10:55:23.169Z,401.00
2022-09-07T10:56:18.520Z,403.00
2022-09-07T10:57:14.017Z,408.00
2022-09-07T10:58:09.510Z,411.00
2022-09-07T10:59:04.860Z,410.00
2022-09-07T11:00:14.931Z,410.00
2022-09-07T11:00:55.799Z,411.00
2022-09-07T11:01:49.873Z,420.00
2022-09-07T11:03:24.995Z,418.00
2022-09-07T11:03:41.461Z,418.00
2022-09-07T11:04:35.188Z,416.00
2022-09-07T11:05:37.015Z,418.00
2022-09-07T11:06:29.212Z,415.00
2022-09-07T11:07:23.791Z,416.00
2022-09-07T11:08:19.326Z,416.00
2022-09-07T11:09:17.195Z,414.00
2022-09-07T11:10:10.256Z,418.00
2022-09-07T11:11:05.931Z,427.00
2022-09-07T11:12:02.107Z,420.00
2022-09-07T11:12:56.644Z,425.00
2022-09-07T11:14:11.902Z,418.00
2022-09-07T11:14:48.708Z,421.00
2022-09-07T11:15:43.273Z,420.00
2022-09-07T11:16:54.177Z,420.00
2022-09-07T11:17:35.138Z,418.00
2022-09-07T11:18:29.744Z,413.00
2022-09-07T11:19:39.994Z,422.00
2022-09-07T11:20:20.711Z,422.00
2022-09-07T11:21:14.918Z,420.00
2022-09-07T11:22:09.755Z,412.00
2022-09-07T11:23:04.826Z,424.00
2022-09-07T11:24:00.432Z,417.00
2022-09-07T11:25:53.579Z,420.00
2022-09-07T11:26:48.125Z,417.00
2022-09-07T11:27:43.583Z,414.00
2022-09-07T11:28:38.848Z,416.00
2022-09-07T11:29:34.402Z,411.00
2022-09-07T11:30:29.917Z,423.00
2022-09-07T11:31:25.489Z,430.00
2022-09-07T11:32:20.762Z,422.00
2022-09-07T11:33:16.241Z,416.00
2022-09-07T11:34:27.030Z,420.00
2022-09-07T11:35:08.206Z,421.00
2022-09-07T11:36:02.657Z,410.00
2022-09-07T11:36:58.387Z,423.00
2022-09-07T11:37:53.754Z,416.00
2022-09-07T11:38:48.843Z,426.00
2022-09-07T11:39:44.030Z,422.00
2022-09-07T11:40:39.045Z,422.00
2022-09-07T11:41:34.057Z,420.00
2022-09-07T11:42:44.601Z,422.00
2022-09-07T11:43:25.196Z,416.00
2022-09-07T11:44:19.214Z,417.00
2022-09-07T11:45:14.316Z,415.00
2022-09-07T11:46:09.695Z,414.00
2022-09-07T11:47:04.704Z,400.00
2022-09-07T11:47:59.672Z,399.00
2022-09-07T11:48:56.152Z,398.00
2022-09-07T11:49:54.104Z,402.00
2022-09-07T11:50:47.240Z,408.00
2022-09-07T11:51:42.767Z,404.00
2022-09-07T11:52:38.282Z,406.00
2022-09-07T11:53:33.922Z,399.00
2022-09-07T11:54:29.326Z,417.00
2022-09-07T11:55:24.837Z,404.00
2022-09-07T11:56:20.621Z,407.00
2022-09-07T11:57:16.447Z,411.00